Lokaal brand risico:
CBI


Regionaal brand risico: Meer informatie


Weerstation
Sluispark-LeuvenLeuven-Sluispark



info button van: 25-06-2019 03:59    tot: 26-06-2019 23:59 waarschuwing voor: Extreme hitte niveau: Oranje   Extreme hitte
Het wordt zeer warm de komende dagen. Bij dergelijke erg hoge temperatuurwaarden zullen bepaalde te nemen maatregelen voor behoeftige mensen noodzakelijk zijn : regelmatig drinken, zich lichter kleden, de dag in koelere ruimten laten doorbrengen, de gezondheidstoestand regelmatig opvolgen, licht verteerbaar voedsel ( en in kleinere porties) tot zich nemen, deuren en ramen gesloten houden om de warmte buiten te houden. Wees voorbereid en volg de raadgevingen van de bevoegde overheid op.

Nabijgelegen vliegvelden - METAR rapporten

   
EBBR - Wilsele bij Leuven
Gewijzigd: 25-06-2019 05:20
Helder    Wind: ZO 7.4 km/h
Helder
Wind: Wind: ZO 7.4 km/h
Temperatuur: 20°C
Dauwpunt: 18°C
Vochtigheid: 88%
Barometer: 1015 hPa
Zicht: meer dan 10 km
Bewolking: Helder
EBBR 250320Z 14004KT CAVOK 20/18 Q1015 NOSIG
EBAW - Antwerp
Gewijzigd: 25-06-2019 05:20
Helder    Wind: OZO 7.4 km/h
Helder
Wind: Wind: OZO 7.4 km/h
Temperatuur: 20°C
Dauwpunt: 19°C
Vochtigheid: 94%
Barometer: 1015 hPa
Bewolking: Helder
Zicht: 7 km
Bewolking: Helder
EBAW 250320Z AUTO 11004KT 7000 // NCD 20/19 Q1015
EBLG - Li├Ęge
Gewijzigd: 25-06-2019 05:20
Helder    Wind: ZO 9.3 km/h
Helder
Wind: Wind: ZO 9.3 km/h
Temperatuur: 23°C
Dauwpunt: 16°C
Vochtigheid: 65%
Barometer: 1016 hPa
Zicht: meer dan 10 km
Bewolking: Helder
EBLG 250320Z 13005KT 090V160 CAVOK 23/16 Q1016
EBCV - Mons/Bergen
Gewijzigd: 25-06-2019 05:25
Nevel, Grotendeels bewolkt    Wind: varieert 3.7 km/h
Nevel, Grotendeels bewolkt
Wind: Wind: varieert 3.7 km/h
Temperatuur: 19°C
Dauwpunt: 18°C
Vochtigheid: 94%
Barometer: 1015 hPa
Bewolking: Grotendeels bewolkt
Zicht: 2 km
Bewolking: Grotendeels bewolkt 5486.4 m,
Grotendeels bewolkt 5791.2 m
EBCV 250325Z AUTO VRB02KT 1800 BR BKN180/// BKN190/// 19/18 Q1015 YLO
EHBK - Maastricht
Gewijzigd: 25-06-2019 05:25
Gedeeltelijk bewolkt    Wind: Oosten 7.4 km/h
Gedeeltelijk bewolkt
Wind: Wind: Oosten 7.4 km/h
Temperatuur: 22°C
Dauwpunt: 16°C
Vochtigheid: 69%
Barometer: 1016 hPa
Bewolking: Gedeeltelijk bewolkt
Zicht: meer dan 10 km
Bewolking: Gedeeltelijk bewolkt
EHBK 250325Z AUTO 09004KT 060V130 9999 NSC 22/16 Q1016
ELLX - Luxemburg
Gewijzigd: 25-06-2019 05:20
Helder    Wind: Oosten 11.1 km/h
Helder
Wind: Wind: Oosten 11.1 km/h
Temperatuur: 22°C
Dauwpunt: 16°C
Vochtigheid: 69%
Barometer: 1018 hPa
Zicht: meer dan 10 km
Bewolking: Helder
ELLX 250320Z 09006KT CAVOK 22/16 Q1018 NOSIG
EBOS - Oostende
Gewijzigd: 25-06-2019 05:20
Helder    Wind: NO 14.8 km/h
Helder
Wind: Wind: NO 14.8 km/h
Temperatuur: 19°C
Dauwpunt: 16°C
Vochtigheid: 83%
Barometer: 1015 hPa
Zicht: meer dan 10 km
Bewolking: Helder
EBOS 250320Z 04008KT CAVOK 19/16 Q1015 NOSIG
  

Script ontwikkeld door  Saratoga-weather.org Aangepast voor de template door  Weerstation Leuven

U vindt ons ook hier:

UK Metoffice

WeatherCloud

European Weather Network

Weather Underground

Benelux Weather Network

AWEKAS

WeatherlinkIP

Het Weer Aktueel

Apparatuur in gebruik:

Weer-station
Davis VP2 weatherstation

Weer-programma
Meteobridge

Weer-computer
D-Link DIR-505

Webleverancier
Robohost

Davis VP2 weatherstation

Meteobridge

D-Link DIR-505

Robohost